This is the latest recevied weather packets stored in our database for station/object IT9RID. If no packets are shown the sender has not sent any weather packets the latest 10 day(s).
| Time | Temp. | Humidity | Pressure | Rain* | Wind** | Luminosity | Snow |
|---|---|---|---|---|---|---|---|
| 1777630970 | 18.33° C | 64% | 1018.6 hPa | 0 mm | - | - | - |
| 1777630370 | 18.33° C | 64% | 1018.4 hPa | 0 mm | - | - | - |
| 1777629770 | 18.33° C | 64% | 1018.5 hPa | 0 mm | - | - | - |
| 1777629170 | 18.33° C | 65% | 1018.4 hPa | 0 mm | - | - | - |
| 1777628570 | 17.78° C | 66% | 1018.3 hPa | 0 mm | - | - | - |
| 1777627970 | 17.78° C | 67% | 1018.2 hPa | 0 mm | - | - | - |
| 1777627370 | 17.78° C | 70% | 1018.2 hPa | 0 mm | - | - | - |
| 1777626769 | 17.78° C | 73% | 1018.2 hPa | 0 mm | - | - | - |
| 1777626169 | 17.22° C | 76% | 1018.2 hPa | 0 mm | - | - | - |
| 1777625569 | 16.67° C | 83% | 1018 hPa | 0 mm | - | - | - |
| 1777624969 | 16.67° C | 86% | 1018 hPa | 0 mm | - | - | - |
| 1777624369 | 16.11° C | 88% | 1018 hPa | 0 mm | - | - | - |
| 1777623769 | 16.11° C | 88% | 1017.9 hPa | 0 mm | - | - | - |
| 1777623169 | 16.11° C | 89% | 1017.8 hPa | 0.25 mm | - | - | - |
| 1777621968 | 16.11° C | 89% | 1017.6 hPa | 0.25 mm | - | - | - |
| 1777621368 | 15.56° C | 89% | 1017.4 hPa | 0.25 mm | - | - | - |
| 1777564353 | 20.56° C | 58% | 1014.9 hPa | 0 mm | - | - | - |
| 1777563753 | 20.56° C | 58% | 1014.8 hPa | 0 mm | - | - | - |
| 1777563153 | 20.56° C | 58% | 1014.9 hPa | 0 mm | - | - | - |
| 1777562553 | 20.56° C | 55% | 1014.9 hPa | 0 mm | - | - | - |
| 1777561956 | 20.56° C | 53% | 1014.8 hPa | 0 mm | - | - | - |
| 1777561353 | 21.11° C | 49% | 1014.8 hPa | 0 mm | - | - | - |
| 1777560752 | 21.67° C | 48% | 1014.6 hPa | 0 mm | - | - | - |
| 1777560152 | 21.11° C | 48% | 1014.5 hPa | 0 mm | - | - | - |
| 1777559552 | 21.67° C | 49% | 1014.4 hPa | 0 mm | - | - | - |
* Rain latest hour (hover to see other rain measurements)
** Current wind speed in m/s (hover to see current wind gust speed)